Time;durP1;ratioP1;P1;durP2;ratioP2;P2;SDS_P1;SDS_P2;PMS_P1;PMS_P2;Temp;Humidity;BMP_temperature;BMP_pressure;BME280_temperature;BME280_humidity;BME280_pressure;Samples;Min_cycle;Max_cycle;Signal;HPM_P1;HPM_P2
2023/01/22 00:01:31;;;;;;;;;;;1.50;99.90;;;;;;4939696;29;20059;-72
2023/01/22 00:03:57;;;;;;;8.43;5.65;;;1.40;99.90;;;;;;4941022;29;20328;-71
2023/01/22 00:06:22;;;;;;;7.97;5.53;;;1.50;99.90;;;;;;4940143;29;20063;-72
2023/01/22 00:08:49;;;;;;;9.05;5.63;;;1.50;99.90;;;;;;4925899;29;20051;-72
2023/01/22 00:11:16;;;;;;;7.88;5.60;;;1.60;99.90;;;;;;4941150;29;20102;-72
2023/01/22 00:13:42;;;;;;;10.20;6.43;;;1.60;99.90;;;;;;4938231;29;20102;-72
2023/01/22 00:16:12;;;;;;;8.52;6.10;;;1.70;99.90;;;;;;4940687;29;20039;-72
2023/01/22 00:18:38;;;;;;;11.63;6.85;;;1.70;99.90;;;;;;4940526;29;20039;-72
2023/01/22 00:21:04;;;;;;;10.27;6.75;;;1.70;99.90;;;;;;4941285;29;20478;-72
2023/01/22 00:23:31;;;;;;;16.83;7.40;;;1.70;99.90;;;;;;4942276;28;20047;-71
2023/01/22 00:26:10;;;;;;;9.85;6.88;;;1.70;99.90;;;;;;4925177;29;20075;-71
2023/01/22 00:28:37;;;;;;;9.88;6.28;;;1.70;99.90;;;;;;4940493;29;20055;-72
2023/01/22 00:31:04;;;;;;;11.73;7.22;;;1.60;99.90;;;;;;4938859;29;20058;-72
2023/01/22 00:33:31;;;;;;;11.57;7.25;;;1.60;99.90;;;;;;4939347;29;20036;-72
2023/01/22 00:36:03;;;;;;;10.57;6.72;;;1.60;99.90;;;;;;4938542;29;20039;-72
2023/01/22 00:38:29;;;;;;;11.55;7.97;;;1.60;99.90;;;;;;4940845;29;20043;-72
2023/01/22 00:40:54;;;;;;;11.80;7.03;;;1.60;99.90;;;;;;4940603;29;20517;-72
2023/01/22 00:43:20;;;;;;;10.03;6.70;;;1.50;99.90;;;;;;4941007;29;20338;-72
2023/01/22 00:45:46;;;;;;;12.75;6.78;;;1.50;99.90;;;;;;4939802;29;20520;-72
2023/01/22 00:48:12;;;;;;;16.55;9.20;;;1.50;99.90;;;;;;4924160;29;20055;-72
2023/01/22 00:50:37;;;;;;;13.93;8.38;;;1.50;99.90;;;;;;4941615;29;20127;-72
2023/01/22 00:53:03;;;;;;;12.57;6.78;;;1.50;99.90;;;;;;4938153;29;20483;-72
2023/01/22 00:55:29;;;;;;;12.68;8.27;;;1.40;99.90;;;;;;4940288;29;20517;-72
2023/01/22 00:57:55;;;;;;;12.50;8.15;;;1.50;99.90;;;;;;4940946;29;20039;-72
2023/01/22 01:00:21;;;;;;;10.60;6.90;;;1.60;99.90;;;;;;4924485;29;20035;-72
2023/01/22 01:05:31;;;;;;;8.40;5.68;;;1.60;99.90;;;;;;4940136;29;20046;-72
2023/01/22 01:07:57;;;;;;;9.60;6.32;;;1.60;99.90;;;;;;4921621;29;20043;-72
2023/01/22 01:10:23;;;;;;;9.82;6.35;;;1.60;99.90;;;;;;4939503;29;20054;-72
2023/01/22 01:12:49;;;;;;;9.45;6.40;;;1.60;99.90;;;;;;4938935;29;20159;-73
2023/01/22 01:15:14;;;;;;;8.38;5.75;;;1.60;99.90;;;;;;4939834;29;20145;-73
2023/01/22 01:17:40;;;;;;;7.72;4.82;;;1.50;99.90;;;;;;4939316;29;20054;-73
2023/01/22 01:20:06;;;;;;;5.38;3.72;;;1.60;99.90;;;;;;4939917;29;20043;-73
2023/01/22 01:22:32;;;;;;;5.13;3.50;;;1.60;99.90;;;;;;4938442;29;20141;-74
2023/01/22 01:24:57;;;;;;;4.72;3.00;;;1.50;99.90;;;;;;4924549;29;20550;-74
2023/01/22 01:27:23;;;;;;;5.78;4.03;;;1.60;99.90;;;;;;4928322;29;20048;-74
2023/01/22 01:29:49;;;;;;;6.10;4.28;;;1.60;99.90;;;;;;4943430;29;20039;-74
2023/01/22 01:32:14;;;;;;;5.07;3.53;;;1.60;99.90;;;;;;4941525;29;20846;-74
2023/01/22 01:34:40;;;;;;;5.18;3.50;;;1.60;99.90;;;;;;4943272;29;20383;-74
2023/01/22 01:37:05;;;;;;;4.93;3.05;;;1.50;99.90;;;;;;4941910;29;20127;-74
2023/01/22 01:39:31;;;;;;;4.10;2.80;;;1.50;99.90;;;;;;4943052;29;20074;-74
2023/01/22 01:41:57;;;;;;;3.83;2.90;;;1.50;99.90;;;;;;4927136;29;20043;-74
2023/01/22 01:44:23;;;;;;;6.80;4.07;;;1.50;99.90;;;;;;4943178;29;20603;-74
2023/01/22 01:46:59;;;;;;;6.72;4.25;;;1.50;99.90;;;;;;4929361;29;20423;-74
2023/01/22 01:49:49;;;;;;;6.10;3.90;;;1.60;99.90;;;;;;4942706;29;20051;-74
2023/01/22 01:52:16;;;;;;;4.35;3.20;;;1.50;99.90;;;;;;4944036;29;20098;-74
2023/01/22 01:54:45;;;;;;;3.97;2.80;;;1.50;99.90;;;;;;4942579;29;20103;-74
2023/01/22 01:57:17;;;;;;;4.18;3.03;;;1.50;99.90;;;;;;4941965;29;20376;-74
2023/01/22 01:59:46;;;;;;;4.18;3.30;;;1.50;99.90;;;;;;4938327;29;20050;-74
2023/01/22 02:02:12;;;;;;;3.67;2.90;;;1.50;99.90;;;;;;4946040;29;20054;-74
2023/01/22 02:04:38;;;;;;;4.38;3.17;;;1.50;99.90;;;;;;4940806;29;20047;-74
2023/01/22 02:07:05;;;;;;;9.15;6.45;;;1.50;99.90;;;;;;4944539;29;20043;-74
2023/01/22 02:09:31;;;;;;;10.68;6.90;;;1.60;99.90;;;;;;4945829;29;20042;-74
2023/01/22 02:11:56;;;;;;;8.40;5.97;;;1.60;99.90;;;;;;4942971;29;20083;-74
2023/01/22 02:14:27;;;;;;;10.32;7.28;;;1.70;99.90;;;;;;4942972;29;20122;-74
2023/01/22 02:17:04;;;;;;;17.38;9.82;;;1.70;99.90;;;;;;4928416;29;20471;-74
2023/01/22 02:19:30;;;;;;;12.98;9.05;;;1.80;99.90;;;;;;4945537;29;20453;-74
2023/01/22 02:21:56;;;;;;;15.32;9.40;;;1.80;99.90;;;;;;4942229;29;20046;-74
2023/01/22 02:24:21;;;;;;;17.58;10.23;;;1.90;99.90;;;;;;4943940;28;20045;-74
2023/01/22 02:26:47;;;;;;;15.18;10.25;;;1.90;99.90;;;;;;4942171;29;20518;-74
2023/01/22 02:29:13;;;;;;;12.90;8.98;;;2.00;99.90;;;;;;4928307;29;20098;-74
2023/01/22 02:31:40;;;;;;;15.57;9.40;;;2.10;99.90;;;;;;4941284;29;20054;-74
2023/01/22 02:34:06;;;;;;;;;;;2.10;99.90;;;;;;4944081;29;20511;-74
2023/01/22 02:36:34;;;;;;;14.18;9.02;;;2.10;99.90;;;;;;4941274;28;19929;-74
2023/01/22 02:39:00;;;;;;;13.90;9.05;;;2.20;99.90;;;;;;4944520;28;20145;-74
2023/01/22 02:41:26;;;;;;;12.32;7.65;;;2.20;99.90;;;;;;4941412;29;20070;-74
2023/01/22 02:43:52;;;;;;;16.17;8.32;;;2.20;99.90;;;;;;4947413;29;20043;-74
2023/01/22 02:46:18;;;;;;;11.35;7.75;;;2.20;99.90;;;;;;4926249;29;20048;-74
2023/01/22 02:48:45;;;;;;;11.75;7.55;;;2.20;99.90;;;;;;4927373;29;20070;-74
2023/01/22 02:51:10;;;;;;;11.20;7.43;;;2.30;99.90;;;;;;4941204;29;20036;-74
2023/01/22 02:53:36;;;;;;;10.70;7.20;;;2.30;99.90;;;;;;4942069;29;20076;-74
2023/01/22 02:56:09;;;;;;;11.30;6.60;;;2.30;99.90;;;;;;4926625;29;20043;-74
2023/01/22 02:58:36;;;;;;;10.77;6.60;;;2.30;99.90;;;;;;4927667;29;20453;-74
2023/01/22 03:01:20;;;;;;;9.02;6.38;;;2.30;99.90;;;;;;4942748;29;20102;-74
2023/01/22 03:03:50;;;;;;;11.55;6.40;;;2.30;99.90;;;;;;4942221;29;20081;-74
2023/01/22 03:06:20;;;;;;;9.20;6.10;;;2.30;99.90;;;;;;4943044;29;20054;-74
2023/01/22 03:08:55;;;;;;;12.32;5.90;;;2.30;99.90;;;;;;4940105;29;20055;-74
2023/01/22 03:11:21;;;;;;;9.23;5.78;;;2.30;99.90;;;;;;4941773;29;20490;-74
2023/01/22 03:22:01;;;;;;;9.23;5.13;;;2.20;99.90;;;;;;4940699;29;20150;-74
2023/01/22 03:24:26;;;;;;;8.70;5.05;;;2.20;99.90;;;;;;4941335;28;20531;-74
2023/01/22 03:26:52;;;;;;;8.80;4.80;;;2.20;99.90;;;;;;4942699;29;20051;-74
2023/01/22 03:29:18;;;;;;;7.93;5.10;;;2.10;99.90;;;;;;4926745;29;20047;-74
2023/01/22 03:31:47;;;;;;;6.00;4.47;;;2.10;99.90;;;;;;4940883;29;20051;-74
2023/01/22 03:34:14;;;;;;;8.38;4.82;;;2.10;99.90;;;;;;4941810;29;20126;-74
2023/01/22 03:36:40;;;;;;;7.03;4.00;;;2.10;99.90;;;;;;4939445;29;20059;-74
2023/01/22 03:39:06;;;;;;;6.15;4.35;;;2.10;99.90;;;;;;4943618;29;20036;-74
2023/01/22 03:41:31;;;;;;;6.95;4.32;;;2.10;99.90;;;;;;4941030;29;20567;-74
2023/01/22 03:44:00;;;;;;;6.43;4.28;;;2.00;99.90;;;;;;4939145;29;20052;-74
2023/01/22 03:46:26;;;;;;;6.80;4.20;;;2.10;99.90;;;;;;4941068;29;20066;-74
2023/01/22 03:48:52;;;;;;;8.73;3.80;;;2.10;99.90;;;;;;4925159;29;20055;-74
2023/01/22 03:51:19;;;;;;;6.85;4.00;;;2.10;99.90;;;;;;4924053;29;20408;-74
2023/01/22 03:53:46;;;;;;;6.97;4.25;;;2.10;99.90;;;;;;4943168;29;20050;-74
2023/01/22 03:56:21;;;;;;;;;;;2.10;99.90;;;;;;4942635;29;20047;-74
2023/01/22 03:58:48;;;;;;;9.05;3.70;;;2.10;99.90;;;;;;4941470;29;19918;-74
2023/01/22 04:01:16;;;;;;;6.35;3.40;;;2.10;99.90;;;;;;4940338;29;20043;-74
2023/01/22 04:03:42;;;;;;;5.47;3.33;;;2.10;99.90;;;;;;4943379;29;20336;-74
2023/01/22 04:06:10;;;;;;;6.47;3.25;;;2.10;99.90;;;;;;4926803;29;20411;-74
2023/01/22 04:08:37;;;;;;;6.53;3.55;;;2.20;99.90;;;;;;4923691;29;20044;-74
2023/01/22 04:11:03;;;;;;;7.00;3.88;;;2.20;99.90;;;;;;4925189;29;20447;-74
2023/01/22 04:13:31;;;;;;;5.13;3.60;;;2.10;99.90;;;;;;4941695;29;20073;-74
2023/01/22 04:15:57;;;;;;;5.63;3.25;;;2.20;99.90;;;;;;4924304;29;20039;-74
2023/01/22 04:18:23;;;;;;;5.68;3.42;;;2.10;99.90;;;;;;4940178;29;20042;-74
2023/01/22 04:20:50;;;;;;;5.32;3.67;;;2.10;99.90;;;;;;4940991;29;20607;-73
2023/01/22 04:23:16;;;;;;;5.78;3.67;;;2.10;99.90;;;;;;4940286;28;20062;-73
2023/01/22 04:25:43;;;;;;;5.55;3.60;;;2.10;99.90;;;;;;4941158;29;20070;-73
2023/01/22 04:28:09;;;;;;;6.47;3.85;;;2.10;99.90;;;;;;4938233;29;20047;-74
2023/01/22 04:30:36;;;;;;;7.50;4.03;;;2.10;99.90;;;;;;4939444;29;20105;-74
2023/01/22 04:33:02;;;;;;;5.57;3.80;;;2.10;99.90;;;;;;4941280;29;20364;-74
2023/01/22 04:35:28;;;;;;;7.25;3.92;;;2.10;99.90;;;;;;4942550;29;20049;-74
2023/01/22 04:37:53;;;;;;;5.90;3.92;;;2.10;99.90;;;;;;4927025;29;20138;-74
2023/01/22 04:40:19;;;;;;;5.95;3.45;;;2.10;99.90;;;;;;4938974;29;20406;-74
2023/01/22 04:42:45;;;;;;;8.02;4.38;;;2.10;99.90;;;;;;4940158;29;20054;-74
2023/01/22 04:45:11;;;;;;;7.78;3.60;;;2.20;99.90;;;;;;4938148;29;20067;-74
2023/01/22 04:47:45;;;;;;;10.93;3.90;;;2.20;99.90;;;;;;4911239;29;20173;-74
2023/01/22 04:50:16;;;;;;;6.45;3.90;;;2.10;99.90;;;;;;4908772;29;20047;-74
2023/01/22 04:52:41;;;;;;;5.00;4.15;;;2.10;99.90;;;;;;4941397;29;20075;-74
2023/01/22 04:55:07;;;;;;;7.72;4.13;;;2.20;99.90;;;;;;4924175;29;20118;-74
2023/01/22 04:57:33;;;;;;;7.40;4.13;;;2.10;99.90;;;;;;4908442;29;20491;-74
2023/01/22 04:59:59;;;;;;;7.47;4.05;;;2.10;99.90;;;;;;4909794;29;20051;-74
2023/01/22 05:02:25;;;;;;;5.55;4.10;;;2.10;99.90;;;;;;4912081;29;20044;-73
2023/01/22 05:04:50;;;;;;;5.53;4.13;;;2.10;99.90;;;;;;4945547;29;20048;-73
2023/01/22 05:07:16;;;;;;;8.40;4.20;;;2.10;99.90;;;;;;4930015;29;20420;-74
2023/01/22 05:09:41;;;;;;;5.43;3.90;;;2.10;99.90;;;;;;4927656;29;20779;-74
2023/01/22 05:12:07;;;;;;;6.80;3.78;;;2.10;99.90;;;;;;4926715;29;20655;-74
2023/01/22 05:14:33;;;;;;;6.93;3.75;;;2.10;99.90;;;;;;4911959;29;20063;-74
2023/01/22 05:16:58;;;;;;;6.75;3.60;;;2.00;99.90;;;;;;4895299;29;20469;-74
2023/01/22 05:19:24;;;;;;;9.93;4.07;;;2.10;99.90;;;;;;4930166;29;20052;-74
2023/01/22 05:21:50;;;;;;;5.80;3.85;;;2.10;99.90;;;;;;4911191;29;20066;-74
2023/01/22 05:24:17;;;;;;;7.57;3.35;;;2.10;99.90;;;;;;4913175;29;20031;-74
2023/01/22 05:26:43;;;;;;;6.30;3.47;;;2.10;99.90;;;;;;4928056;29;20127;-74
2023/01/22 05:29:09;;;;;;;5.95;3.35;;;2.10;99.90;;;;;;4928015;29;20055;-74
2023/01/22 05:31:35;;;;;;;4.57;3.05;;;2.10;99.90;;;;;;4928452;29;20372;-74
2023/01/22 05:34:01;;;;;;;4.45;3.20;;;2.00;99.90;;;;;;4929420;29;20045;-74
2023/01/22 05:36:27;;;;;;;6.18;3.47;;;2.00;99.90;;;;;;4945903;29;20186;-74
2023/01/22 05:38:52;;;;;;;5.47;3.55;;;2.10;99.90;;;;;;4928703;29;20127;-74
2023/01/22 05:41:18;;;;;;;5.40;3.50;;;2.00;99.90;;;;;;4910420;29;20031;-74
2023/01/22 05:43:44;;;;;;;6.43;3.70;;;2.00;99.90;;;;;;4913312;29;20035;-74
2023/01/22 05:46:10;;;;;;;8.02;3.92;;;2.00;99.90;;;;;;4932428;29;20102;-74
2023/01/22 05:48:35;;;;;;;6.10;3.67;;;2.00;99.90;;;;;;4927707;28;20130;-74
2023/01/22 05:51:03;;;;;;;5.90;3.60;;;2.00;99.90;;;;;;4943736;29;20163;-74
2023/01/22 05:53:29;;;;;;;5.53;3.50;;;2.00;99.90;;;;;;4945146;29;20047;-74
2023/01/22 05:55:58;;;;;;;5.95;3.28;;;2.00;99.90;;;;;;4940919;29;20040;-74
2023/01/22 05:58:24;;;;;;;6.10;3.60;;;2.00;99.90;;;;;;4944089;29;20495;-74
2023/01/22 06:00:52;;;;;;;7.05;3.90;;;2.00;99.90;;;;;;4912009;29;20391;-74
2023/01/22 06:03:17;;;;;;;6.07;3.35;;;2.00;99.90;;;;;;4944179;29;20047;-74
2023/01/22 06:05:43;;;;;;;4.10;2.80;;;2.00;99.90;;;;;;4942003;29;20050;-74
2023/01/22 06:08:08;;;;;;;5.87;3.10;;;2.00;99.90;;;;;;4942569;29;20401;-74
2023/01/22 06:10:34;;;;;;;6.83;3.83;;;2.00;99.90;;;;;;4942854;28;20338;-74
2023/01/22 06:13:00;;;;;;;6.37;3.33;;;1.90;99.90;;;;;;4941493;29;20287;-74
2023/01/22 06:15:25;;;;;;;5.93;3.43;;;2.00;99.90;;;;;;4945060;29;20310;-74
2023/01/22 06:17:51;;;;;;;5.17;3.07;;;2.00;99.90;;;;;;4943674;29;20317;-74
2023/01/22 06:20:17;;;;;;;4.40;3.22;;;1.90;99.90;;;;;;4926381;29;20695;-74
2023/01/22 06:22:42;;;;;;;8.68;3.38;;;1.90;99.90;;;;;;4928182;28;20109;-74
2023/01/22 06:25:08;;;;;;;5.95;3.10;;;2.00;99.90;;;;;;4927432;29;20142;-74
2023/01/22 06:27:34;;;;;;;6.47;3.28;;;2.00;99.90;;;;;;4943026;29;20498;-74
2023/01/22 06:30:00;;;;;;;5.15;3.25;;;1.90;99.90;;;;;;4942850;29;20044;-72
2023/01/22 06:32:25;;;;;;;6.03;3.40;;;1.90;99.90;;;;;;4943880;29;20050;-72
2023/01/22 06:34:51;;;;;;;5.95;3.60;;;1.90;99.90;;;;;;4925278;29;20047;-72
2023/01/22 06:37:17;;;;;;;7.18;3.40;;;1.90;99.90;;;;;;4942196;28;20186;-71
2023/01/22 06:39:43;;;;;;;5.10;3.45;;;1.80;99.90;;;;;;4940556;29;20036;-74
2023/01/22 06:42:08;;;;;;;5.97;3.60;;;1.90;99.90;;;;;;4943780;28;20114;-74
2023/01/22 06:44:34;;;;;;;8.90;3.60;;;1.80;99.90;;;;;;4941782;29;20406;-74
2023/01/22 06:46:59;;;;;;;6.53;3.75;;;1.80;99.90;;;;;;4940879;29;20060;-74
2023/01/22 06:49:25;;;;;;;6.43;4.28;;;1.80;99.90;;;;;;4941648;29;20055;-74
2023/01/22 06:51:51;;;;;;;8.38;4.18;;;1.80;99.90;;;;;;4941627;29;20067;-74
2023/01/22 06:54:16;;;;;;;5.25;3.95;;;1.80;99.90;;;;;;4940967;29;20090;-74
2023/01/22 06:56:42;;;;;;;9.02;4.20;;;1.70;99.90;;;;;;4942130;29;20048;-74
2023/01/22 06:59:08;;;;;;;5.73;3.93;;;1.70;99.90;;;;;;4941982;29;20522;-74
2023/01/22 07:01:34;;;;;;;6.55;4.65;;;1.70;99.90;;;;;;4939116;29;20311;-74
2023/01/22 07:03:59;;;;;;;6.47;4.07;;;1.70;99.90;;;;;;4926920;29;20431;-74
2023/01/22 07:06:25;;;;;;;6.70;4.70;;;1.70;99.90;;;;;;4943212;29;20039;-74
2023/01/22 07:08:51;;;;;;;7.53;4.38;;;1.70;99.90;;;;;;4927760;29;20374;-74
2023/01/22 07:11:17;;;;;;;6.53;4.80;;;1.70;99.90;;;;;;4929864;29;20042;-77
2023/01/22 07:13:42;;;;;;;7.68;4.80;;;1.70;99.90;;;;;;4942022;29;20055;-75
2023/01/22 07:16:08;;;;;;;5.70;4.43;;;1.60;99.90;;;;;;4942002;29;20083;-74
2023/01/22 07:18:34;;;;;;;7.85;4.72;;;1.60;99.90;;;;;;4942312;29;20051;-73
2023/01/22 07:21:04;;;;;;;5.43;4.25;;;1.60;99.90;;;;;;4922930;29;20065;-74
2023/01/22 07:23:30;;;;;;;4.72;4.05;;;1.60;99.90;;;;;;4942131;28;20043;-73
2023/01/22 07:25:56;;;;;;;6.65;5.10;;;1.60;99.90;;;;;;4945623;28;20046;-74
2023/01/22 07:28:22;;;;;;;5.70;4.60;;;1.50;99.90;;;;;;4941791;29;20102;-74
2023/01/22 07:30:48;;;;;;;6.47;4.75;;;1.50;99.90;;;;;;4943502;29;20164;-74
2023/01/22 07:33:14;;;;;;;6.30;5.00;;;1.50;99.90;;;;;;4942177;29;20400;-74
2023/01/22 07:35:40;;;;;;;7.65;5.03;;;1.50;99.90;;;;;;4925774;29;20102;-74
2023/01/22 07:38:06;;;;;;;;;;;1.50;99.90;;;;;;4944740;28;20154;-74
2023/01/22 07:40:32;;;;;;;6.97;5.20;;;1.50;99.90;;;;;;4928027;29;20013;-74
2023/01/22 07:42:58;;;;;;;7.88;5.20;;;1.50;99.90;;;;;;4945320;28;20039;-74
2023/01/22 07:45:24;;;;;;;8.80;5.63;;;1.50;99.90;;;;;;4938674;29;20063;-74
2023/01/22 07:47:56;;;;;;;6.13;4.40;;;1.50;99.90;;;;;;4925636;29;20048;-74
2023/01/22 07:50:27;;;;;;;7.78;5.30;;;1.40;99.90;;;;;;4925219;29;20645;-75
2023/01/22 07:52:54;;;;;;;7.28;5.07;;;1.40;99.90;;;;;;4925557;29;20039;-75
2023/01/22 07:55:20;;;;;;;6.78;5.28;;;1.40;99.90;;;;;;4928496;29;20046;-75
2023/01/22 07:57:45;;;;;;;6.75;5.10;;;1.30;99.90;;;;;;4922320;29;20047;-74
2023/01/22 08:00:14;;;;;;;6.28;5.10;;;1.40;99.90;;;;;;4926526;29;20055;-74
2023/01/22 08:02:41;;;;;;;6.07;5.22;;;1.40;99.90;;;;;;4927039;29;20082;-74
2023/01/22 08:05:07;;;;;;;9.02;5.68;;;1.40;99.90;;;;;;4925277;29;20118;-75
2023/01/22 08:07:33;;;;;;;5.63;5.03;;;1.40;99.90;;;;;;4929219;29;20058;-75
2023/01/22 08:09:58;;;;;;;6.88;5.28;;;1.40;99.90;;;;;;4925070;29;20047;-74
2023/01/22 08:12:24;;;;;;;5.70;5.05;;;1.30;99.90;;;;;;4893231;29;20039;-74
2023/01/22 08:14:50;;;;;;;5.95;4.93;;;1.40;99.90;;;;;;4925185;29;20054;-75
2023/01/22 08:17:16;;;;;;;5.70;4.78;;;1.40;99.90;;;;;;4921764;29;20044;-75
2023/01/22 08:19:41;;;;;;;7.90;4.90;;;1.30;99.90;;;;;;4909398;29;20039;-74
2023/01/22 08:22:07;;;;;;;5.28;4.78;;;1.30;99.90;;;;;;4925854;29;20043;-74
2023/01/22 08:24:35;;;;;;;6.93;4.90;;;1.40;99.90;;;;;;4909077;29;20048;-75
2023/01/22 08:27:01;;;;;;;8.55;5.50;;;1.40;99.90;;;;;;4925843;29;20078;-74
2023/01/22 08:29:27;;;;;;;7.57;5.30;;;1.40;99.90;;;;;;4924388;29;20070;-74
2023/01/22 08:31:53;;;;;;;6.32;5.10;;;1.50;99.90;;;;;;4924633;29;20059;-75
2023/01/22 08:34:19;;;;;;;8.23;5.60;;;1.40;99.90;;;;;;4939565;29;20043;-74
2023/01/22 08:36:45;;;;;;;6.28;4.70;;;1.40;99.90;;;;;;4909503;29;20647;-74
2023/01/22 08:39:12;;;;;;;6.43;4.50;;;1.40;99.90;;;;;;4908852;29;20040;-74
2023/01/22 08:41:38;;;;;;;7.25;4.90;;;1.40;99.90;;;;;;4924716;29;20058;-74
2023/01/22 08:44:04;;;;;;;6.35;4.63;;;1.40;99.90;;;;;;4925356;29;20491;-74
2023/01/22 08:46:30;;;;;;;6.88;5.15;;;1.50;99.90;;;;;;4915829;29;20098;-74
2023/01/22 08:48:56;;;;;;;5.70;5.10;;;1.50;99.90;;;;;;4926336;29;20173;-74
2023/01/22 08:51:23;;;;;;;7.32;5.30;;;1.40;99.90;;;;;;4941393;29;20369;-74
2023/01/22 08:53:49;;;;;;;7.30;5.45;;;1.40;99.90;;;;;;4939911;29;20048;-74
2023/01/22 08:56:15;;;;;;;7.18;5.40;;;1.40;99.90;;;;;;4924619;29;20163;-74
2023/01/22 08:58:41;;;;;;;5.97;4.85;;;1.40;99.90;;;;;;4940967;29;20118;-74
2023/01/22 09:01:12;;;;;;;7.03;4.85;;;1.40;99.90;;;;;;4942070;29;20063;-74
2023/01/22 09:03:38;;;;;;;6.97;5.22;;;1.40;99.90;;;;;;4939794;29;20090;-74
2023/01/22 09:06:03;;;;;;;7.30;5.20;;;1.40;99.90;;;;;;4941490;28;20044;-74
2023/01/22 09:08:30;;;;;;;6.70;5.00;;;1.50;99.90;;;;;;4944214;28;20393;-74
2023/01/22 09:10:56;;;;;;;;;;;1.50;99.90;;;;;;4942722;28;20617;-74
2023/01/22 09:13:21;;;;;;;5.65;4.60;;;1.50;99.90;;;;;;4939838;29;20013;-74
2023/01/22 09:15:47;;;;;;;7.15;5.03;;;1.60;99.90;;;;;;4923544;29;20086;-74
2023/01/22 09:18:13;;;;;;;6.10;4.65;;;1.60;99.90;;;;;;4927613;29;20074;-74
2023/01/22 09:20:38;;;;;;;7.97;4.88;;;1.60;99.90;;;;;;4939261;29;20098;-74
2023/01/22 09:23:04;;;;;;;7.22;5.38;;;1.60;99.90;;;;;;4940024;28;20043;-74
2023/01/22 09:25:30;;;;;;;7.60;5.07;;;1.70;99.90;;;;;;4935736;29;20177;-74
2023/01/22 09:27:58;;;;;;;8.95;4.88;;;1.70;99.90;;;;;;4945094;29;20294;-74
2023/01/22 09:30:25;;;;;;;6.70;5.07;;;1.80;99.90;;;;;;4923348;29;20050;-74
2023/01/22 09:32:51;;;;;;;6.72;4.72;;;1.90;99.90;;;;;;4923600;29;20051;-74
2023/01/22 09:35:16;;;;;;;5.72;4.63;;;1.80;99.90;;;;;;4940479;28;20051;-74
2023/01/22 09:37:42;;;;;;;9.15;4.80;;;1.80;99.90;;;;;;4939764;29;20050;-76
2023/01/22 09:40:24;;;;;;;6.30;4.50;;;1.80;99.90;;;;;;4940169;29;20806;-76
2023/01/22 09:42:51;;;;;;;8.63;5.30;;;1.80;99.90;;;;;;4922455;29;20066;-76
2023/01/22 09:45:22;;;;;;;7.95;4.75;;;1.90;99.90;;;;;;4922592;29;20043;-75
2023/01/22 09:47:53;;;;;;;6.22;5.15;;;1.90;99.90;;;;;;4911291;29;20420;-76
2023/01/22 09:50:45;;;;;;;6.22;4.75;;;1.90;99.90;;;;;;4927795;29;20055;-76
2023/01/22 09:53:16;;;;;;;6.03;4.90;;;1.90;99.90;;;;;;4905937;28;20112;-76
2023/01/22 09:55:45;;;;;;;6.95;5.38;;;1.90;99.90;;;;;;4926966;29;20039;-76
2023/01/22 09:58:20;;;;;;;6.93;4.88;;;2.00;99.90;;;;;;4928870;29;20051;-75
2023/01/22 10:00:52;;;;;;;7.60;5.15;;;2.10;99.90;;;;;;4925106;29;20186;-74
2023/01/22 10:03:31;;;;;;;6.82;5.15;;;2.00;99.90;;;;;;4942687;28;20039;-75
2023/01/22 10:06:03;;;;;;;7.57;5.00;;;2.10;99.90;;;;;;4926403;29;20625;-75
2023/01/22 10:08:51;;;;;;;6.63;4.90;;;2.20;99.90;;;;;;4908783;29;20038;-75
2023/01/22 10:11:17;;;;;;;6.15;4.75;;;2.10;99.90;;;;;;4926921;29;20043;-75
2023/01/22 10:13:43;;;;;;;5.95;4.95;;;2.20;99.90;;;;;;4932042;29;20430;-75
2023/01/22 10:16:10;;;;;;;7.28;5.22;;;2.30;99.90;;;;;;4928391;29;20074;-75
2023/01/22 10:18:42;;;;;;;6.30;4.53;;;2.30;99.90;;;;;;4929952;29;20141;-75
2023/01/22 10:21:22;;;;;;;6.45;4.80;;;2.30;99.90;;;;;;4910877;29;20119;-75
2023/01/22 10:23:49;;;;;;;7.75;4.88;;;2.30;99.90;;;;;;4925017;28;20114;-75
2023/01/22 10:26:23;;;;;;;7.25;5.10;;;2.30;99.90;;;;;;4930308;29;20752;-75
2023/01/22 10:28:53;;;;;;;6.22;4.57;;;2.30;99.90;;;;;;4929818;29;20551;-75
2023/01/22 10:31:32;;;;;;;5.88;4.95;;;2.30;99.90;;;;;;4929198;29;20087;-75
2023/01/22 10:33:59;;;;;;;5.85;4.43;;;2.30;99.90;;;;;;4927495;29;20054;-74
2023/01/22 10:36:26;;;;;;;6.05;4.68;;;2.40;99.90;;;;;;4929368;29;20123;-74
2023/01/22 10:39:13;;;;;;;6.28;4.50;;;2.40;99.90;;;;;;4894821;29;20046;-75
2023/01/22 10:41:40;;;;;;;4.43;3.65;;;2.40;99.90;;;;;;4891554;29;20453;-75
2023/01/22 10:44:12;;;;;;;4.65;3.58;;;2.40;99.90;;;;;;4928054;29;20078;-75
2023/01/22 10:46:37;;;;;;;4.63;3.78;;;2.50;99.90;;;;;;4935470;28;20071;-75
2023/01/22 10:49:05;;;;;;;5.78;3.78;;;2.50;99.90;;;;;;4948977;29;20047;-82
2023/01/22 10:51:41;;;;;;;5.13;3.65;;;2.60;99.90;;;;;;4929834;29;20491;-75
2023/01/22 10:54:18;;;;;;;5.30;3.47;;;2.60;99.90;;;;;;4948637;29;20051;-75
2023/01/22 10:56:44;;;;;;;5.15;3.53;;;2.60;99.90;;;;;;4947272;28;20138;-75
2023/01/22 10:59:28;;;;;;;6.50;3.72;;;2.70;99.90;;;;;;4941894;29;20047;-75
2023/01/22 11:02:00;;;;;;;6.00;4.43;;;2.70;99.90;;;;;;4925060;29;20110;-75
2023/01/22 11:04:34;;;;;;;5.72;4.35;;;2.70;99.90;;;;;;4943206;29;20403;-75
2023/01/22 11:07:08;;;;;;;6.80;4.70;;;2.80;99.90;;;;;;4942289;28;20073;-75
2023/01/22 11:09:45;;;;;;;5.15;3.55;;;2.90;99.90;;;;;;4945428;28;20054;-75
2023/01/22 11:12:20;;;;;;;;;;;2.80;99.90;;;;;;4958964;28;20051;-75
2023/01/22 11:14:57;;;;;;;6.22;4.53;;;2.80;99.90;;;;;;4943339;29;19934;-73
2023/01/22 11:17:45;;;;;;;6.50;4.10;;;2.80;99.90;;;;;;4945256;28;20051;-73
2023/01/22 11:20:34;;;;;;;7.70;4.25;;;2.80;99.90;;;;;;4945372;29;20536;-73
2023/01/22 11:23:17;;;;;;;6.32;4.13;;;2.90;99.90;;;;;;4936391;29;20134;-73
2023/01/22 11:25:49;;;;;;;6.88;3.90;;;3.00;99.90;;;;;;4928502;29;20393;-73
2023/01/22 11:28:40;;;;;;;6.43;4.25;;;3.00;99.90;;;;;;4940290;28;20048;-73
2023/01/22 11:31:28;;;;;;;9.05;4.43;;;3.00;99.90;;;;;;4941959;29;20043;-73
2023/01/22 11:34:00;;;;;;;;;;;3.00;99.90;;;;;;4941849;29;20039;-73
2023/01/22 11:36:41;;;;;;;6.30;4.40;;;3.00;99.90;;;;;;4938982;28;20404;-73
2023/01/22 11:39:26;;;;;;;5.78;4.00;;;3.10;99.90;;;;;;4946121;29;20047;-73
2023/01/22 11:41:59;;;;;;;4.88;3.70;;;3.10;99.90;;;;;;4942868;29;20058;-73
2023/01/22 11:44:58;;;;;;;6.32;4.65;;;3.20;99.90;;;;;;4939156;28;20108;-72
2023/01/22 11:47:55;;;;;;;3.65;3.05;;;3.20;99.90;;;;;;4903112;29;20062;-73
2023/01/22 11:50:26;;;;;;;5.20;4.15;;;3.40;99.90;;;;;;4923836;29;20078;-72
2023/01/22 11:53:32;;;;;;;6.65;4.22;;;3.40;99.90;;;;;;4927230;29;20047;-72
2023/01/22 11:56:19;;;;;;;8.70;4.32;;;3.40;99.90;;;;;;4939387;28;20422;-73
2023/01/22 11:58:58;;;;;;;7.43;4.10;;;3.40;99.90;;;;;;4929958;29;20043;-72
2023/01/22 12:01:45;;;;;;;4.65;3.80;;;3.50;99.90;;;;;;4927606;29;20070;-72
2023/01/22 12:04:52;;;;;;;4.93;3.93;;;3.50;99.90;;;;;;4942563;29;20055;-72
2023/01/22 12:07:20;;;;;;;9.43;4.15;;;3.60;99.90;;;;;;4926213;29;20117;-72
2023/01/22 12:09:51;;;;;;;7.47;4.38;;;3.60;99.90;;;;;;4926683;29;20059;-72
2023/01/22 12:12:19;;;;;;;7.90;4.60;;;3.60;99.90;;;;;;4925310;29;20040;-72
2023/01/22 12:15:08;;;;;;;5.65;4.13;;;3.70;99.90;;;;;;4924440;29;20047;-72
2023/01/22 12:17:47;;;;;;;6.90;4.13;;;3.70;99.90;;;;;;4915698;29;20138;-72
2023/01/22 12:20:36;;;;;;;7.03;4.07;;;3.70;99.90;;;;;;4924461;29;20055;-72
2023/01/22 12:23:09;;;;;;;6.07;3.80;;;3.80;99.90;;;;;;4923671;29;20046;-72
2023/01/22 12:25:40;;;;;;;5.38;3.58;;;3.70;99.90;;;;;;4924487;29;20059;-71
2023/01/22 12:28:09;;;;;;;5.75;3.90;;;3.70;99.90;;;;;;4923051;29;20073;-72
2023/01/22 12:30:44;;;;;;;4.72;3.80;;;3.70;99.90;;;;;;4926499;29;20472;-72
2023/01/22 12:33:13;;;;;;;6.68;3.60;;;3.70;99.90;;;;;;4941466;28;20051;-72
2023/01/22 12:35:39;;;;;;;7.00;4.03;;;3.70;99.90;;;;;;4925497;29;20056;-72
2023/01/22 12:38:20;;;;;;;6.28;3.90;;;3.70;99.90;;;;;;4921518;29;20066;-72
2023/01/22 12:41:02;;;;;;;5.10;3.80;;;3.70;99.90;;;;;;4925893;29;20533;-72
2023/01/22 12:43:51;;;;;;;4.50;3.30;;;3.60;99.90;;;;;;4925534;29;20529;-72
2023/01/22 12:46:29;;;;;;;5.72;3.88;;;3.60;99.90;;;;;;4927939;29;20519;-73
2023/01/22 12:49:07;;;;;;;7.32;4.15;;;3.60;99.90;;;;;;4939621;29;20054;-72
2023/01/22 12:51:38;;;;;;;6.47;3.90;;;3.60;99.90;;;;;;4937497;29;20062;-72
2023/01/22 12:54:08;;;;;;;5.40;3.80;;;3.50;99.90;;;;;;4939701;29;20036;-72
2023/01/22 12:56:33;;;;;;;7.53;4.32;;;3.50;99.90;;;;;;4943227;28;20047;-72
2023/01/22 12:58:59;;;;;;;8.05;4.20;;;3.50;99.90;;;;;;4925184;29;20054;-73
2023/01/22 13:01:34;;;;;;;8.85;4.07;;;3.40;99.90;;;;;;4942533;28;20051;-73
2023/01/22 13:04:04;;;;;;;5.95;3.78;;;3.50;99.90;;;;;;4925899;29;20035;-73
2023/01/22 13:06:34;;;;;;;5.28;3.60;;;3.50;99.90;;;;;;4941967;29;20051;-72
2023/01/22 13:09:01;;;;;;;5.88;4.22;;;3.50;99.90;;;;;;4938818;29;20052;-73
2023/01/22 13:11:38;;;;;;;7.65;4.30;;;3.50;99.90;;;;;;4940585;29;20043;-72
2023/01/22 13:14:25;;;;;;;8.43;4.80;;;3.40;99.90;;;;;;4941015;29;20047;-72
2023/01/22 13:16:54;;;;;;;;;;;3.40;99.90;;;;;;4944190;29;20047;-72
2023/01/22 13:19:26;;;;;;;7.13;4.60;;;3.40;99.90;;;;;;4925581;28;19922;-73